Byesville, Ohio
Current Conditions -  °F | °C
As of 8:28 PM on Tuesday 27 Jan 2015 (Local Time) from KZZV Reporting Station
Scattered Clouds Scattered Clouds  
Wind Chill:   Ceiling: Unl
Heat Index: 16°   Visibility: 10mi
Dew Point:   Wind: 6mph
Humidity: 74%   Direction: 340°NNW
Pressure: 30.16"   Gusts: NA
Location:  39.97°N, 81.54°W
Report Text: KZZV 280128Z AUTO 34005KT 10SM SCT027 M09/M13 A3016 RMK AO2 T10891128
Loading
Personal Weather Stations






























Interactive Weather Map New forecast layout! Learn more

10-Day Weather Forecast

Advertisements
Track Severe Weather on mobile